This is the latest recevied weather packets stored in our database for station/object 9W2CEW-1. If no packets are shown the sender has not sent any weather packets the latest 10 day(s).
| Time | Temp. | Humidity | Pressure | Rain* | Wind** | Luminosity | Snow |
|---|---|---|---|---|---|---|---|
| 1787748810 | 35° C | 48% | 1004.9 hPa | - | - | - | - |
| 1787748127 | 36.67° C | 44% | 1003.9 hPa | - | - | - | - |
| 1787747909 | 34.44° C | 49% | 1005 hPa | - | - | - | - |
| 1787747010 | 33.89° C | 50% | 1005 hPa | - | - | - | - |
| 1787746112 | 35° C | 46% | 1004.9 hPa | - | - | - | - |
| 1787745549 | 36.11° C | 44% | 1004 hPa | - | - | - | - |
| 1787745209 | 35° C | 46% | 1004.5 hPa | - | - | - | - |
| 1787744309 | 34.44° C | 48% | 1004.5 hPa | - | - | - | - |
| 1787743409 | 35° C | 46% | 1004.5 hPa | - | - | - | - |
| 1787742509 | 35° C | 45% | 1004.7 hPa | - | - | - | - |
| 1787742370 | 38.33° C | 39% | 1004.4 hPa | - | - | - | - |
| 1787741609 | 33.89° C | 48% | 1004.5 hPa | - | - | - | - |
| 1787740709 | 34.44° C | 47% | 1004.4 hPa | - | - | - | - |
| 1787739811 | 36.11° C | 43% | 1004.4 hPa | - | - | - | - |
| 1787738914 | 35.56° C | 43% | 1003.9 hPa | - | - | - | - |
| 1787738007 | 36.67° C | 40% | 1003.7 hPa | - | - | - | - |
| 1787737107 | 35.56° C | 44% | 1004 hPa | - | - | - | - |
| 1787736207 | 36.11° C | 42% | 1003.8 hPa | - | - | - | - |
| 1787735307 | 36.67° C | 42% | 1003.6 hPa | - | - | - | - |
| 1787735130 | 40° C | 36% | 1004.7 hPa | - | - | - | - |
| 1787734406 | 36.11° C | 43% | 1003.5 hPa | - | - | - | - |
| 1787733506 | 36.67° C | 41% | 1003.5 hPa | - | - | - | - |
| 1787733399 | 41.67° C | 34% | 1005 hPa | - | - | - | - |
| 1787732607 | 36.11° C | 43% | 1003.9 hPa | - | - | - | - |
| 1787731705 | 38.33° C | 40% | 1003.8 hPa | - | - | - | - |
* Rain since midnight (hover to see other rain measurements)
** Current wind speed in m/s (hover to see current wind gust speed)